createdAt,value
2019-04-05T00:00:26.096Z,100061.11
2019-04-05T00:02:53.940Z,100062.45
2019-04-05T00:05:21.836Z,100073.42
2019-04-05T00:07:49.682Z,100073.66
2019-04-05T00:10:17.559Z,100069.05
2019-04-05T00:12:45.470Z,100080.59
2019-04-05T00:15:15.887Z,100083.50
2019-04-05T00:17:42.999Z,100089.30
2019-04-05T00:20:10.967Z,99969.00
2019-04-05T00:22:38.999Z,100080.77
2019-04-05T00:25:07.002Z,100079.84
2019-04-05T00:27:34.933Z,100080.91
2019-04-05T00:30:02.854Z,100077.94
2019-04-05T00:32:30.815Z,100070.59
2019-04-05T00:34:58.701Z,100072.17
2019-04-05T00:37:26.625Z,100069.25
2019-04-05T00:39:55.056Z,100028.94
2019-04-05T00:42:23.047Z,100054.17
2019-04-05T00:44:51.019Z,100051.39
2019-04-05T00:47:18.953Z,100045.67
2019-04-05T00:49:46.926Z,100056.36
2019-04-05T00:52:14.859Z,99918.92
2019-04-05T00:54:42.891Z,100049.94
2019-04-05T00:57:10.759Z,100045.88
2019-04-05T00:59:39.022Z,100043.92
2019-04-05T01:02:07.012Z,100050.75
2019-04-05T01:04:39.119Z,100056.48
2019-04-05T01:07:07.103Z,100060.63
2019-04-05T01:09:34.972Z,100067.35
2019-04-05T01:12:03.079Z,100063.87
2019-04-05T01:14:31.036Z,100065.91
2019-04-05T01:16:59.014Z,100073.73
2019-04-05T01:19:28.538Z,100073.38
2019-04-05T01:21:56.633Z,100079.45
2019-04-05T01:24:25.613Z,100090.41
2019-04-05T01:26:53.569Z,100089.53
2019-04-05T01:29:21.407Z,100086.55
2019-04-05T01:31:49.440Z,100093.98
2019-04-05T01:34:17.347Z,100110.05
2019-04-05T01:36:45.275Z,100103.97
2019-04-05T01:39:13.193Z,100109.01
2019-04-05T01:41:42.380Z,100096.34
2019-04-05T01:44:11.399Z,100093.81
2019-04-05T01:46:39.479Z,100091.50
2019-04-05T01:49:07.521Z,100082.17
2019-04-05T01:51:35.532Z,100089.33
2019-04-05T01:54:03.472Z,100093.33
2019-04-05T01:56:31.338Z,100103.19
2019-04-05T01:58:59.196Z,100100.58
2019-04-05T02:01:27.034Z,100103.77
2019-04-05T02:03:54.970Z,100111.37
2019-04-05T02:06:22.944Z,100115.17
2019-04-05T02:08:50.880Z,100108.84
2019-04-05T02:11:18.839Z,100034.63
2019-04-05T02:13:46.702Z,100103.99
2019-04-05T02:16:14.817Z,100117.19
2019-04-05T02:18:42.850Z,100064.04
2019-04-05T02:21:10.786Z,100086.66
2019-04-05T02:23:38.790Z,100100.63
2019-04-05T02:26:06.768Z,100097.97
2019-04-05T02:28:34.741Z,100089.88
2019-04-05T02:31:02.647Z,100082.78
2019-04-05T02:33:30.659Z,100083.01
2019-04-05T02:35:58.534Z,100078.44
2019-04-05T02:38:26.588Z,100076.88
2019-04-05T02:40:58.292Z,100030.36
2019-04-05T02:43:24.168Z,100070.46
2019-04-05T02:45:52.238Z,100064.19
2019-04-05T02:48:20.069Z,100066.83
2019-04-05T02:50:49.740Z,99987.44
2019-04-05T02:53:17.658Z,100070.34
2019-04-05T02:55:45.644Z,100069.19
2019-04-05T02:58:13.839Z,100064.20
2019-04-05T03:00:41.907Z,100061.48
2019-04-05T03:03:09.808Z,100067.62
2019-04-05T03:05:39.118Z,100067.78
2019-04-05T03:08:08.503Z,100070.14
2019-04-05T03:11:04.969Z,100070.36
2019-04-05T03:13:34.298Z,100074.21
2019-04-05T03:16:02.780Z,100060.28
2019-04-05T03:18:30.705Z,100094.50
2019-04-05T03:20:59.627Z,100101.88
2019-04-05T03:23:27.552Z,100105.80
2019-04-05T03:25:55.474Z,100116.32
2019-04-05T03:28:23.457Z,100120.41
2019-04-05T03:30:51.417Z,100125.36
2019-04-05T03:33:19.373Z,100114.36
2019-04-05T03:35:47.626Z,100113.22
2019-04-05T03:38:15.616Z,100107.20
2019-04-05T03:40:43.730Z,100113.02
2019-04-05T03:43:11.738Z,100125.83
2019-04-05T03:45:39.675Z,100127.73
2019-04-05T03:48:07.585Z,100128.30
2019-04-05T03:50:35.509Z,100132.42
2019-04-05T03:53:03.438Z,100137.77
2019-04-05T03:55:31.357Z,100137.14
2019-04-05T03:57:59.292Z,100151.27
2019-04-05T04:00:27.196Z,100108.90
2019-04-05T04:02:55.069Z,100161.36
2019-04-05T04:05:23.074Z,100163.94
2019-04-05T04:07:50.997Z,100159.39
2019-04-05T04:10:18.974Z,100161.14
2019-04-05T04:12:46.937Z,100156.72
2019-04-05T04:15:15.158Z,100154.25
2019-04-05T04:17:44.513Z,100160.13
2019-04-05T04:20:27.175Z,100158.13
2019-04-05T04:22:55.067Z,100155.68
2019-04-05T04:25:22.877Z,100158.91
2019-04-05T04:27:50.770Z,100158.42
2019-04-05T04:30:18.713Z,100155.14
2019-04-05T04:32:46.587Z,100164.60
2019-04-05T04:35:14.494Z,100174.05
2019-04-05T04:37:42.450Z,100143.13
2019-04-05T04:40:10.315Z,100170.08
2019-04-05T04:42:38.190Z,100162.80
2019-04-05T04:45:12.354Z,100161.44
2019-04-05T04:47:40.347Z,100158.56
2019-04-05T04:50:08.901Z,100139.11
2019-04-05T04:52:37.838Z,100162.39
2019-04-05T04:55:06.336Z,99986.94
2019-04-05T04:57:34.275Z,100169.86
2019-04-05T05:00:02.357Z,100168.69
2019-04-05T05:02:30.277Z,100175.52
2019-04-05T05:04:58.248Z,100172.86
2019-04-05T05:07:26.237Z,100177.44
2019-04-05T05:09:54.357Z,100188.42
2019-04-05T05:12:22.374Z,100194.78
2019-04-05T05:14:50.302Z,100196.75
2019-04-05T05:17:18.179Z,100194.97
2019-04-05T05:19:47.348Z,100193.81
2019-04-05T05:22:15.479Z,100200.13
2019-04-05T05:24:44.656Z,100200.42
2019-04-05T05:27:14.742Z,100202.30
2019-04-05T05:29:42.996Z,100210.02
2019-04-05T05:32:10.903Z,100208.36
2019-04-05T05:34:38.919Z,100210.41
2019-04-05T05:37:06.740Z,100214.88
2019-04-05T05:39:34.720Z,100215.29
2019-04-05T05:42:02.726Z,100223.47
2019-04-05T05:44:30.751Z,100218.22
2019-04-05T05:46:58.771Z,100203.53
2019-04-05T05:49:26.797Z,100218.22
2019-04-05T05:51:54.800Z,100215.70
2019-04-05T05:54:22.678Z,100218.47
2019-04-05T05:56:52.816Z,100218.29
2019-04-05T05:59:20.843Z,100223.76
2019-04-05T06:01:48.892Z,100226.48
2019-04-05T06:04:16.741Z,100219.50
2019-04-05T06:06:44.807Z,100217.63
2019-04-05T06:09:12.770Z,100213.75
2019-04-05T06:11:40.880Z,100213.95
2019-04-05T06:14:08.733Z,100223.04
2019-04-05T06:16:46.409Z,100191.75
2019-04-05T06:19:06.156Z,100201.39
2019-04-05T06:21:34.063Z,100202.39
2019-04-05T06:24:05.065Z,100213.53
2019-04-05T06:26:31.397Z,100210.63
2019-04-05T06:28:59.313Z,100215.52
2019-04-05T06:31:27.228Z,100214.05
2019-04-05T06:33:55.125Z,100214.41
2019-04-05T06:36:23.256Z,100213.09
2019-04-05T06:38:52.279Z,100215.17
2019-04-05T06:41:20.386Z,100224.55
2019-04-05T06:43:48.723Z,100230.64
2019-04-05T06:46:16.940Z,100232.94
2019-04-05T06:48:45.018Z,100225.52
2019-04-05T06:51:12.992Z,100233.16
2019-04-05T06:53:41.027Z,100241.14
2019-04-05T06:56:09.251Z,100243.09
2019-04-05T06:58:37.274Z,100237.23
2019-04-05T07:01:05.404Z,100243.69
2019-04-05T07:03:34.573Z,100247.77
2019-04-05T07:06:03.156Z,100237.36
2019-04-05T07:08:31.895Z,100241.17
2019-04-05T07:10:59.987Z,100245.52
2019-04-05T07:13:28.955Z,100247.13
2019-04-05T07:15:58.507Z,100253.39
2019-04-05T07:18:35.489Z,100238.42
2019-04-05T07:20:59.929Z,100248.09
2019-04-05T07:23:49.388Z,100256.56
2019-04-05T07:26:26.264Z,100261.09
2019-04-05T07:28:54.584Z,100259.17
2019-04-05T07:31:23.119Z,100262.44
2019-04-05T07:33:56.103Z,100266.72
2019-04-05T07:36:23.317Z,100266.73
2019-04-05T07:38:51.201Z,100266.89
2019-04-05T07:41:19.556Z,100267.25
2019-04-05T07:43:48.049Z,100226.39
2019-04-05T07:46:17.101Z,100271.25
2019-04-05T07:48:45.602Z,100270.00
2019-04-05T07:51:13.626Z,100275.20
2019-04-05T07:53:41.604Z,100278.70
2019-04-05T07:56:09.663Z,100271.95
2019-04-05T07:58:38.041Z,100265.40
2019-04-05T08:01:06.079Z,100262.36
2019-04-05T08:03:34.199Z,100271.37
2019-04-05T08:06:04.513Z,100276.81
2019-04-05T08:08:39.315Z,100274.62
2019-04-05T08:11:07.214Z,100285.93
2019-04-05T08:13:35.157Z,100281.34
2019-04-05T08:16:03.121Z,100280.81
2019-04-05T08:18:31.064Z,100281.55
2019-04-05T08:21:00.545Z,100283.20
2019-04-05T08:23:28.562Z,100289.55
2019-04-05T08:25:56.711Z,100301.11
2019-04-05T08:28:24.742Z,100298.16
2019-04-05T08:30:52.856Z,100299.03
2019-04-05T08:33:20.951Z,100302.34
2019-04-05T08:35:52.268Z,100299.80
2019-04-05T08:38:20.330Z,100300.25
2019-04-05T08:40:48.402Z,100238.06
2019-04-05T08:43:16.427Z,100304.48
2019-04-05T08:45:44.478Z,100292.72
2019-04-05T08:48:12.516Z,100289.95
2019-04-05T08:50:40.531Z,100287.45
2019-04-05T08:53:08.519Z,100278.45
2019-04-05T08:55:36.529Z,100281.88
2019-04-05T08:58:05.285Z,100279.78
2019-04-05T09:00:33.432Z,100212.95
2019-04-05T09:03:01.681Z,100285.69
2019-04-05T09:05:29.696Z,100288.80
2019-04-05T09:07:57.925Z,100289.75
2019-04-05T09:10:25.888Z,100289.58
2019-04-05T09:13:01.312Z,100290.15
2019-04-05T09:15:29.690Z,100284.96
2019-04-05T09:18:01.004Z,100285.92
2019-04-05T09:20:28.981Z,100289.86
2019-04-05T09:22:57.713Z,100289.20
2019-04-05T09:25:24.627Z,100291.08
2019-04-05T09:27:52.741Z,100285.31
2019-04-05T09:30:21.723Z,100287.80
2019-04-05T09:33:19.895Z,100286.67
2019-04-05T09:35:48.163Z,100281.88
2019-04-05T09:38:19.436Z,100280.92
2019-04-05T09:40:49.130Z,100271.56
2019-04-05T09:43:17.180Z,100287.18
2019-04-05T09:45:46.441Z,100292.14
2019-04-05T09:48:14.373Z,100288.20
2019-04-05T09:50:42.612Z,100286.11
2019-04-05T09:53:10.657Z,100280.13
2019-04-05T09:55:39.417Z,100282.68
2019-04-05T09:58:09.900Z,100282.20
2019-04-05T10:00:37.003Z,100281.69
2019-04-05T10:03:08.513Z,100275.80
2019-04-05T10:05:34.981Z,100266.51
2019-04-05T10:08:02.939Z,100283.12
2019-04-05T10:10:30.970Z,100281.53
2019-04-05T10:12:58.911Z,100288.14
2019-04-05T10:15:26.898Z,100293.95
2019-04-05T10:17:56.973Z,100289.13
2019-04-05T10:20:24.964Z,100295.71
2019-04-05T10:22:52.950Z,100212.55
2019-04-05T10:25:21.041Z,100298.49
2019-04-05T10:27:49.007Z,100302.78
2019-04-05T10:30:17.045Z,100299.64
2019-04-05T10:32:46.511Z,100303.30
2019-04-05T10:35:15.527Z,100309.55
2019-04-05T10:37:43.448Z,100308.99
2019-04-05T10:40:11.585Z,100314.98
2019-04-05T10:42:40.027Z,100313.74
2019-04-05T10:45:14.998Z,100315.37
2019-04-05T10:47:43.336Z,100319.69
2019-04-05T10:50:12.453Z,100321.97
2019-04-05T10:52:40.462Z,100312.67
2019-04-05T10:55:08.909Z,100316.70
2019-04-05T10:57:36.881Z,100315.64
2019-04-05T11:00:06.492Z,100307.50
2019-04-05T11:02:34.667Z,100308.91
2019-04-05T11:05:02.801Z,100304.29
2019-04-05T11:07:30.742Z,100273.12
2019-04-05T11:09:59.769Z,100308.94
2019-04-05T11:12:27.924Z,100307.00
2019-04-05T11:14:55.859Z,100315.55
2019-04-05T11:17:23.987Z,100316.55
2019-04-05T11:19:52.762Z,100317.66
2019-04-05T11:22:21.131Z,100315.07
2019-04-05T11:24:49.210Z,100317.27
2019-04-05T11:27:17.282Z,100312.53
2019-04-05T11:29:45.332Z,100307.87
2019-04-05T11:32:13.452Z,100315.95
2019-04-05T11:34:41.486Z,100309.81
2019-04-05T11:37:09.902Z,100313.09
2019-04-05T11:39:38.099Z,100309.51
2019-04-05T11:42:06.171Z,100304.86
2019-04-05T11:44:36.393Z,100291.56
2019-04-05T11:47:04.493Z,100322.52
2019-04-05T11:49:36.591Z,100316.39
2019-04-05T11:52:06.985Z,100314.76
2019-04-05T11:54:35.489Z,100279.58
2019-04-05T11:57:04.412Z,100315.88
2019-04-05T11:59:32.617Z,100257.50
2019-04-05T12:02:19.678Z,100287.67
2019-04-05T12:04:47.685Z,100317.64
2019-04-05T12:07:15.818Z,100233.95
2019-04-05T12:09:43.931Z,100313.17
2019-04-05T12:12:12.564Z,100317.27
2019-04-05T12:14:43.107Z,100311.03
2019-04-05T12:17:13.418Z,100311.92
2019-04-05T12:19:43.100Z,100309.73
2019-04-05T12:22:11.295Z,100306.80
2019-04-05T12:24:40.445Z,100305.97
2019-04-05T12:27:09.287Z,100305.86
2019-04-05T12:29:37.212Z,100307.77
2019-04-05T12:32:05.474Z,100309.73
2019-04-05T12:34:34.079Z,100302.81
2019-04-05T12:37:02.177Z,100304.87
2019-04-05T12:39:30.491Z,100300.17
2019-04-05T12:41:58.360Z,100309.00
2019-04-05T12:44:26.355Z,100317.16
2019-04-05T12:46:54.375Z,100316.30
2019-04-05T12:49:22.705Z,100318.06
2019-04-05T12:51:54.941Z,100327.83
2019-04-05T12:54:23.063Z,100320.70
2019-04-05T12:56:53.967Z,100327.27
2019-04-05T12:59:25.163Z,100331.70
2019-04-05T13:01:52.637Z,100347.80
2019-04-05T13:04:22.336Z,100346.92
2019-04-05T13:06:52.809Z,100354.11
2019-04-05T13:09:21.443Z,100342.02
2019-04-05T13:11:50.902Z,100342.67
2019-04-05T13:14:18.834Z,100321.82
2019-04-05T13:16:49.565Z,100344.20
2019-04-05T13:19:17.888Z,100347.08
2019-04-05T13:21:46.934Z,100353.48
2019-04-05T13:27:26.377Z,100352.55
2019-04-05T13:29:54.670Z,100346.59
2019-04-05T13:32:32.637Z,100342.63
2019-04-05T13:34:55.875Z,100351.78
2019-04-05T13:38:04.446Z,100351.48
2019-04-05T13:40:32.542Z,100354.02
2019-04-05T13:43:02.575Z,100347.09
2019-04-05T13:45:31.067Z,100356.71
2019-04-05T13:47:59.010Z,100353.83
2019-04-05T13:50:26.978Z,100354.02
2019-04-05T13:52:55.169Z,100362.34
2019-04-05T13:55:23.113Z,100355.03
2019-04-05T13:57:51.121Z,100352.27
2019-04-05T14:00:19.324Z,100349.42
2019-04-05T14:02:50.129Z,100354.02
2019-04-05T14:05:18.555Z,100349.95
2019-04-05T14:07:46.624Z,100350.53
2019-04-05T14:10:17.926Z,100353.00
2019-04-05T14:12:46.296Z,100277.41
2019-04-05T14:15:14.270Z,100346.95
2019-04-05T14:17:44.778Z,100321.77
2019-04-05T14:20:13.289Z,100348.56
2019-04-05T14:22:41.414Z,100349.23
2019-04-05T14:25:09.611Z,100348.05
2019-04-05T14:27:37.563Z,100348.82
2019-04-05T14:30:05.901Z,100344.83
2019-04-05T14:32:33.885Z,100338.63
2019-04-05T14:35:02.147Z,100339.83
2019-04-05T14:37:30.322Z,100337.34
2019-04-05T14:39:58.315Z,100339.11
2019-04-05T14:42:29.367Z,100346.42
2019-04-05T14:44:56.021Z,100335.61
2019-04-05T14:47:27.796Z,100337.92
2019-04-05T14:49:54.224Z,100343.07
2019-04-05T14:52:22.225Z,100337.51
2019-04-05T14:54:50.837Z,100330.91
2019-04-05T14:57:18.905Z,100333.24
2019-04-05T14:59:47.210Z,100337.95
2019-04-05T15:02:15.106Z,100335.37
2019-04-05T15:04:43.705Z,100328.09
2019-04-05T15:07:12.629Z,100328.25
2019-04-05T15:09:40.566Z,100334.38
2019-04-05T15:12:08.653Z,100326.44
2019-04-05T15:14:36.699Z,100328.51
2019-04-05T15:17:04.673Z,100336.14
2019-04-05T15:19:32.769Z,100334.79
2019-04-05T15:22:05.941Z,100340.57
2019-04-05T15:24:32.185Z,100333.59
2019-04-05T15:27:00.268Z,100335.42
2019-04-05T15:29:28.398Z,100336.20
2019-04-05T15:31:56.848Z,100339.06
2019-04-05T15:34:28.002Z,100331.58
2019-04-05T15:37:02.315Z,100328.98
2019-04-05T15:39:30.785Z,100342.73
2019-04-05T15:41:59.505Z,100336.36
2019-04-05T15:44:27.615Z,100338.02
2019-04-05T15:46:56.124Z,100343.74
2019-04-05T15:49:24.059Z,100342.33
2019-04-05T15:51:54.586Z,100344.00
2019-04-05T15:54:21.889Z,100345.44
2019-04-05T15:56:49.907Z,100351.16
2019-04-05T15:59:18.043Z,100346.07
2019-04-05T16:01:45.947Z,100258.00
2019-04-05T16:04:14.053Z,100351.53
2019-04-05T16:06:41.975Z,100276.73
2019-04-05T16:09:12.433Z,100353.14
2019-04-05T16:11:40.407Z,100357.80
2019-04-05T16:14:08.419Z,100354.55
2019-04-05T16:16:44.478Z,100366.55
2019-04-05T16:19:10.019Z,100363.70
2019-04-05T16:21:37.958Z,100363.79
2019-04-05T16:24:05.871Z,100369.41
2019-04-05T16:26:33.778Z,100369.83
2019-04-05T16:29:02.422Z,100376.52
2019-04-05T16:31:30.550Z,100375.85
2019-04-05T16:33:58.458Z,100374.34
2019-04-05T16:36:26.215Z,100382.08
2019-04-05T16:38:54.043Z,100382.92
2019-04-05T16:41:21.792Z,100386.80
2019-04-05T16:43:55.122Z,100385.86
2019-04-05T16:46:23.070Z,100314.06
2019-04-05T16:48:56.309Z,100375.68
2019-04-05T16:51:31.525Z,100359.67
2019-04-05T16:54:03.683Z,100390.81
2019-04-05T16:56:34.451Z,100331.42
2019-04-05T16:59:04.322Z,100398.11
2019-04-05T17:01:32.079Z,100395.41
2019-04-05T17:03:59.832Z,100389.83
2019-04-05T17:06:28.380Z,100394.84
2019-04-05T17:08:56.296Z,100394.28
2019-04-05T17:11:24.063Z,100394.37
2019-04-05T17:13:52.241Z,100343.93
2019-04-05T17:16:20.305Z,100400.42
2019-04-05T17:18:48.146Z,100409.23
2019-04-05T17:21:15.879Z,100411.12
2019-04-05T17:23:47.199Z,100411.12
2019-04-05T17:26:17.270Z,100410.91
2019-04-05T17:28:57.479Z,100412.63
2019-04-05T17:31:25.336Z,100421.10
2019-04-05T17:33:53.066Z,100416.23
2019-04-05T17:36:20.846Z,100419.80
2019-04-05T17:38:48.691Z,100421.49
2019-04-05T17:41:17.019Z,100417.09
2019-04-05T17:43:44.830Z,100420.83
2019-04-05T17:46:14.053Z,100418.12
2019-04-05T17:48:41.883Z,100385.80
2019-04-05T17:51:09.699Z,100421.36
2019-04-05T17:53:37.476Z,100421.38
2019-04-05T17:56:09.808Z,100414.25
2019-04-05T17:58:40.142Z,100427.78
2019-04-05T18:01:08.083Z,100432.07
2019-04-05T18:03:35.816Z,100432.54
2019-04-05T18:06:04.401Z,100428.58
2019-04-05T18:08:32.507Z,100426.35
2019-04-05T18:11:00.382Z,100432.54
2019-04-05T18:13:28.176Z,100432.07
2019-04-05T18:15:56.962Z,100434.92
2019-04-05T18:18:24.726Z,100442.28
2019-04-05T18:20:52.516Z,100443.31
2019-04-05T18:23:25.397Z,100451.67
2019-04-05T18:25:49.767Z,100449.36
2019-04-05T18:28:17.524Z,100450.47
2019-04-05T18:30:49.233Z,100456.28
2019-04-05T18:33:24.268Z,100442.69
2019-04-05T18:35:55.666Z,100340.80
2019-04-05T18:38:23.673Z,100467.62
2019-04-05T18:40:51.830Z,100469.61
2019-04-05T18:43:21.935Z,100465.38
2019-04-05T18:45:56.383Z,100470.34
2019-04-05T18:48:24.334Z,100433.45
2019-04-05T18:50:52.044Z,100373.85
2019-04-05T18:53:20.562Z,100477.13
2019-04-05T18:55:48.475Z,100479.77
2019-04-05T18:58:16.215Z,100483.77
2019-04-05T19:00:44.067Z,100483.73
2019-04-05T19:03:11.856Z,100480.50
2019-04-05T19:05:49.463Z,100482.47
2019-04-05T19:08:17.846Z,100484.77
2019-04-05T19:10:45.686Z,100482.00
2019-04-05T19:13:13.418Z,100485.23
2019-04-05T19:15:41.285Z,100484.17
2019-04-05T19:18:09.096Z,100486.61
2019-04-05T19:20:37.091Z,100494.74
2019-04-05T19:23:04.893Z,100496.92
2019-04-05T19:25:32.612Z,100499.71
2019-04-05T19:28:00.549Z,100498.47
2019-04-05T19:50:30.472Z,100514.42
2019-04-05T19:52:58.270Z,100521.97
2019-04-05T19:55:26.054Z,100518.67
2019-04-05T19:57:54.038Z,100524.15
2019-04-05T20:00:22.063Z,100524.77
2019-04-05T20:02:49.922Z,100525.73
2019-04-05T20:05:17.703Z,100526.16
2019-04-05T20:07:45.410Z,100527.14
2019-04-05T20:10:13.195Z,100526.21
2019-04-05T20:12:40.996Z,100527.23
2019-04-05T20:15:11.937Z,100530.11
2019-04-05T20:17:42.895Z,100532.34
2019-04-05T20:20:10.772Z,100534.63
2019-04-05T20:22:38.480Z,100530.34
2019-04-05T20:25:06.824Z,100500.00
2019-04-05T20:27:34.653Z,100533.52
2019-04-05T20:30:02.377Z,100538.41
2019-04-05T20:32:30.153Z,100541.56
2019-04-05T20:34:57.903Z,100543.65
2019-04-05T20:37:25.643Z,100543.05
2019-04-05T20:39:53.375Z,100544.83
2019-04-05T20:42:21.399Z,100546.13
2019-04-05T20:44:49.250Z,100546.67
2019-04-05T20:47:17.062Z,100540.67
2019-04-05T20:49:44.806Z,100550.86
2019-04-05T20:52:12.644Z,100547.37
2019-04-05T20:55:06.127Z,100545.83
2019-04-05T20:57:18.749Z,100554.72
2019-04-05T20:59:46.563Z,100557.42
2019-04-05T21:02:15.030Z,100557.28
2019-04-05T21:04:42.855Z,100559.48
2019-04-05T21:07:25.902Z,100562.41
2019-04-05T21:09:53.823Z,100563.97
2019-04-05T21:12:21.615Z,100561.59
2019-04-05T21:14:49.427Z,100561.67
2019-04-05T21:17:17.191Z,100561.66
2019-04-05T21:19:44.958Z,100562.16
2019-04-05T21:22:12.770Z,100558.28
2019-04-05T21:24:44.259Z,100482.15
2019-04-05T21:27:19.343Z,100570.54
2019-04-05T21:29:47.265Z,100566.75
2019-04-05T21:32:15.042Z,100566.37
2019-04-05T21:34:42.837Z,100531.28
2019-04-05T21:37:10.579Z,100571.80
2019-04-05T21:39:38.362Z,100571.13
2019-04-05T21:42:06.215Z,100568.80
2019-04-05T21:44:33.963Z,100567.04
2019-04-05T21:47:01.705Z,100572.27
2019-04-05T21:49:29.543Z,100570.07
2019-04-05T21:51:57.364Z,100570.34
2019-04-05T21:54:25.099Z,100581.61
2019-04-05T21:56:52.858Z,100580.43
2019-04-05T21:59:20.616Z,100586.67
2019-04-05T22:01:48.403Z,100593.88
2019-04-05T22:04:18.902Z,100605.94
2019-04-05T22:06:50.113Z,100603.80
2019-04-05T22:09:17.929Z,100601.22
2019-04-05T22:11:45.679Z,100598.50
2019-04-05T22:14:13.460Z,100600.69
2019-04-05T22:16:41.508Z,100598.32
2019-04-05T22:19:09.875Z,100605.22
2019-04-05T22:21:37.666Z,100602.25
2019-04-05T22:24:06.034Z,100602.09
2019-04-05T22:26:33.801Z,100601.48
2019-04-05T22:29:01.644Z,100598.80
2019-04-05T22:31:29.460Z,100603.72
2019-04-05T22:33:57.164Z,100604.75
2019-04-05T22:36:24.949Z,100599.70
2019-04-05T22:38:52.794Z,100602.89
2019-04-05T22:41:20.635Z,100595.86
2019-04-05T22:43:48.374Z,100601.95
2019-04-05T22:46:26.527Z,100584.86
2019-04-05T22:48:54.307Z,100598.12
2019-04-05T22:51:22.157Z,100569.40
2019-04-05T22:53:49.906Z,100593.02
2019-04-05T22:56:17.802Z,100600.20
2019-04-05T22:58:45.787Z,100603.14
2019-04-05T23:01:17.549Z,100600.22
2019-04-05T23:03:45.380Z,100600.55
2019-04-05T23:06:13.095Z,100604.29
2019-04-05T23:08:40.983Z,100491.94
2019-04-05T23:11:08.817Z,100602.06
2019-04-05T23:13:36.737Z,100594.35
2019-04-05T23:16:04.600Z,100597.39
2019-04-05T23:18:32.420Z,100595.25
2019-04-05T23:21:00.227Z,100593.98
2019-04-05T23:23:40.373Z,100587.66
2019-04-05T23:26:01.976Z,100553.11
2019-04-05T23:28:29.763Z,100585.57
2019-04-05T23:30:57.714Z,100569.19
2019-04-05T23:33:25.491Z,100566.16
2019-04-05T23:35:53.254Z,100572.61
2019-04-05T23:38:21.017Z,100573.59
2019-04-05T23:40:48.744Z,100578.77
2019-04-05T23:43:16.468Z,100579.23
2019-04-05T23:45:44.250Z,100583.88
2019-04-05T23:48:12.157Z,100595.53
2019-04-05T23:50:39.886Z,100510.53
2019-04-05T23:53:07.649Z,100602.09
2019-04-05T23:55:35.402Z,100607.34
2019-04-05T23:58:03.296Z,100609.77
